Time;durP1;ratioP1;P1;durP2;ratioP2;P2;SDS_P1;SDS_P2;PMS_P1;PMS_P2;Temp;Humidity;BMP_temperature;BMP_pressure;BME280_temperature;BME280_humidity;BME280_pressure;Samples;Min_cycle;Max_cycle;Signal;HPM_P1;HPM_P2
2022/08/16 00:01:16;;;;;;;7.03;4.90;;;19.70;1.00;;;;;;4995623;28;20203;-62
2022/08/16 00:03:43;;;;;;;6.73;4.73;;;19.60;1.00;;;;;;4995283;28;20247;-62
2022/08/16 00:06:10;;;;;;;7.70;4.90;;;19.60;1.00;;;;;;4995380;28;20212;-62
2022/08/16 00:08:37;;;;;;;4.80;4.20;;;19.60;1.00;;;;;;4995510;28;20219;-62
2022/08/16 00:11:06;;;;;;;5.53;4.67;;;19.50;1.00;;;;;;4995525;28;20204;-62
2022/08/16 00:13:33;;;;;;;5.13;4.20;;;19.50;1.00;;;;;;4995340;28;20227;-62
2022/08/16 00:16:00;;;;;;;6.90;4.60;;;19.50;9.90;;;;;;4994693;28;20290;-62
2022/08/16 00:18:27;;;;;;;6.47;4.57;;;19.40;72.60;;;;;;4995176;28;20212;-62
2022/08/16 00:20:53;;;;;;;5.90;4.53;;;19.40;99.90;;;;;;4995343;28;20254;-62
2022/08/16 00:23:20;;;;;;;5.27;4.67;;;19.40;99.90;;;;;;4995336;28;20323;-62
2022/08/16 00:25:47;;;;;;;4.83;4.27;;;19.40;99.90;;;;;;4995197;28;20204;-62
2022/08/16 00:28:15;;;;;;;5.47;4.20;;;19.40;99.90;;;;;;4994899;28;20258;-62
2022/08/16 00:30:41;;;;;;;5.90;4.60;;;19.40;99.90;;;;;;4994835;28;20737;-62
2022/08/16 00:33:09;;;;;;;6.20;4.47;;;19.40;99.90;;;;;;4995229;28;20232;-63
2022/08/16 00:35:38;;;;;;;6.70;4.40;;;19.40;99.90;;;;;;4994515;28;20654;-62
2022/08/16 00:38:06;;;;;;;7.27;4.70;;;19.50;99.90;;;;;;4994722;28;20262;-62
2022/08/16 00:40:37;;;;;;;4.80;4.30;;;19.50;99.90;;;;;;4994942;28;20211;-62
2022/08/16 00:43:07;;;;;;;5.73;4.67;;;19.50;99.90;;;;;;4994713;28;20306;-62
2022/08/16 00:45:43;;;;;;;5.27;4.77;;;19.40;99.90;;;;;;4994913;28;20219;-62
2022/08/16 00:48:14;;;;;;;6.87;5.00;;;19.40;99.90;;;;;;4994452;28;20215;-62
2022/08/16 00:50:43;;;;;;;4.83;4.43;;;19.40;1.00;;;;;;4994880;28;20294;-62
2022/08/16 00:53:14;;;;;;;5.63;4.80;;;19.40;1.00;;;;;;4994598;28;20282;-62
2022/08/16 00:55:46;;;;;;;6.80;4.37;;;19.40;1.00;;;;;;4994465;28;20303;-62
2022/08/16 00:58:14;;;;;;;5.30;4.70;;;19.40;1.00;;;;;;4994434;28;20204;-62
2022/08/16 01:00:42;;;;;;;5.10;4.60;;;19.40;1.00;;;;;;4994636;28;20215;-62
2022/08/16 01:03:12;;;;;;;6.93;4.80;;;19.50;1.00;;;;;;4994502;28;20231;-62
2022/08/16 01:05:39;;;;;;;5.43;4.87;;;19.50;1.00;;;;;;4994354;28;20211;-62
2022/08/16 01:08:08;;;;;;;5.40;4.80;;;19.50;1.00;;;;;;4993937;28;20231;-62
2022/08/16 01:10:36;;;;;;;5.43;4.50;;;19.50;1.00;;;;;;4994357;28;20258;-62
2022/08/16 01:13:08;;;;;;;6.73;4.50;;;19.50;1.00;;;;;;4994044;28;20227;-62
2022/08/16 01:15:37;;;;;;;7.30;4.83;;;19.60;1.00;;;;;;4994260;28;20211;-62
2022/08/16 01:18:07;;;;;;;5.63;4.53;;;19.50;1.00;;;;;;4993930;28;20212;-62
2022/08/16 01:20:37;;;;;;;5.30;4.23;;;19.60;1.00;;;;;;4994214;28;20207;-62
2022/08/16 01:23:10;;;;;;;5.90;4.73;;;19.60;1.00;;;;;;4993913;28;20239;-62
2022/08/16 01:25:44;;;;;;;6.43;4.63;;;19.60;1.00;;;;;;4994213;28;20211;-62
2022/08/16 01:28:15;;;;;;;5.77;4.70;;;19.50;1.00;;;;;;4993811;28;20475;-62
2022/08/16 01:30:46;;;;;;;5.80;4.70;;;19.50;1.00;;;;;;4993719;28;20211;-62
2022/08/16 01:33:12;;;;;;;11.40;4.63;;;19.50;1.00;;;;;;4993909;28;20232;-62
2022/08/16 01:35:44;;;;;;;6.67;4.37;;;19.50;1.00;;;;;;4993513;28;20695;-62
2022/08/16 01:38:18;;;;;;;6.80;4.90;;;19.40;1.00;;;;;;4993686;28;20615;-62
2022/08/16 01:40:46;;;;;;;5.40;4.90;;;19.40;1.00;;;;;;4993653;28;20218;-62
2022/08/16 01:43:13;;;;;;;8.77;4.70;;;19.40;1.00;;;;;;4993652;28;20281;-62
2022/08/16 01:45:39;;;;;;;6.07;4.70;;;19.40;1.00;;;;;;4993345;28;20301;-62
2022/08/16 01:48:06;;;;;;;5.63;4.60;;;19.40;1.00;;;;;;4993117;28;20208;-62
2022/08/16 01:50:34;;;;;;;5.60;4.43;;;19.40;1.00;;;;;;4993954;28;20219;-62
2022/08/16 01:53:01;;;;;;;6.07;5.07;;;19.50;1.00;;;;;;4993557;28;20286;-62
2022/08/16 01:55:28;;;;;;;5.33;4.07;;;19.50;1.00;;;;;;4993528;28;20229;-62
2022/08/16 01:57:56;;;;;;;5.73;4.50;;;19.50;1.00;;;;;;4993148;28;20231;-62
2022/08/16 02:00:24;;;;;;;6.23;4.53;;;19.50;1.00;;;;;;4993248;28;20748;-62
2022/08/16 02:02:50;;;;;;;5.10;4.50;;;19.40;1.00;;;;;;4993451;28;20227;-62
2022/08/16 02:05:17;;;;;;;5.50;4.87;;;19.40;1.00;;;;;;4993423;28;20234;-62
2022/08/16 02:07:44;;;;;;;6.23;4.90;;;19.40;1.00;;;;;;4992984;28;20271;-62
2022/08/16 02:10:11;;;;;;;5.17;4.47;;;19.40;1.00;;;;;;4993539;28;20215;-62
2022/08/16 02:12:38;;;;;;;5.00;4.20;;;19.40;1.00;;;;;;4993360;28;20235;-62
2022/08/16 02:15:08;;;;;;;7.50;4.63;;;19.40;1.00;;;;;;4993326;28;20270;-62
2022/08/16 02:17:35;;;;;;;7.23;4.90;;;19.40;1.00;;;;;;4993036;28;20227;-62
2022/08/16 02:20:02;;;;;;;6.10;4.80;;;19.40;1.00;;;;;;4993345;28;20306;-62
2022/08/16 02:22:29;;;;;;;5.20;4.70;;;19.30;1.00;;;;;;4993305;28;20235;-62
2022/08/16 02:24:56;;;;;;;6.47;4.70;;;19.40;1.00;;;;;;4994064;28;20907;-62
2022/08/16 02:27:23;;;;;;;5.17;4.60;;;19.40;1.00;;;;;;4993114;28;20736;-62
2022/08/16 02:29:49;;;;;;;5.60;5.00;;;19.40;1.00;;;;;;4993202;28;20204;-62
2022/08/16 02:32:18;;;;;;;5.37;4.53;;;19.40;1.00;;;;;;4992655;28;20294;-62
2022/08/16 02:34:44;;;;;;;4.77;4.33;;;19.40;1.00;;;;;;4992947;28;20262;-62
2022/08/16 02:37:11;;;;;;;7.17;4.97;;;19.40;1.00;;;;;;4992436;28;20231;-62
2022/08/16 02:39:38;;;;;;;5.93;4.70;;;19.40;1.00;;;;;;4992631;28;20208;-62
2022/08/16 02:42:05;;;;;;;6.63;4.50;;;19.40;1.00;;;;;;4992494;28;20274;-62
2022/08/16 02:44:32;;;;;;;6.23;4.87;;;19.40;1.00;;;;;;4992713;28;20290;-62
2022/08/16 02:46:59;;;;;;;6.97;4.90;;;19.40;1.00;;;;;;4992348;28;20666;-62
2022/08/16 02:49:27;;;;;;;5.23;4.47;;;19.40;1.00;;;;;;4992383;28;20208;-62
2022/08/16 02:51:54;;;;;;;5.00;4.50;;;19.40;1.00;;;;;;4992595;28;20286;-62
2022/08/16 02:54:20;;;;;;;6.03;4.63;;;19.40;1.00;;;;;;4992436;28;20207;-62
2022/08/16 02:56:47;;;;;;;5.53;4.93;;;19.40;1.00;;;;;;4992051;28;20841;-62
2022/08/16 02:59:14;;;;;;;6.07;4.50;;;19.30;1.00;;;;;;4992351;28;20207;-62
2022/08/16 03:01:41;;;;;;;6.07;4.93;;;19.30;1.00;;;;;;4992462;28;20243;-62
2022/08/16 03:04:08;;;;;;;5.87;4.80;;;19.20;1.00;;;;;;4992379;28;20298;-62
2022/08/16 03:06:36;;;;;;;7.90;4.37;;;19.10;1.00;;;;;;4992051;28;20630;-62
2022/08/16 03:09:03;;;;;;;5.83;4.47;;;19.10;18.50;;;;;;4992229;28;20215;-62
2022/08/16 03:11:31;;;;;;;6.57;5.40;;;19.00;99.90;;;;;;4992474;28;20258;-62
2022/08/16 03:13:58;;;;;;;7.90;5.27;;;19.00;99.90;;;;;;4992481;28;20270;-62
2022/08/16 03:16:25;;;;;;;5.60;5.00;;;19.00;99.90;;;;;;4992303;28;20207;-62
2022/08/16 03:18:52;;;;;;;6.63;5.20;;;19.00;99.90;;;;;;4992362;28;20211;-62
2022/08/16 03:21:19;;;;;;;5.90;4.83;;;19.00;99.90;;;;;;4992245;28;20208;-62
2022/08/16 03:23:47;;;;;;;6.50;5.13;;;19.00;99.90;;;;;;4991939;28;20204;-62
2022/08/16 03:26:14;;;;;;;8.30;5.00;;;18.90;99.90;;;;;;4991960;28;20243;-62
2022/08/16 03:28:41;;;;;;;7.47;4.77;;;18.80;1.00;;;;;;4992183;28;20683;-62
2022/08/16 03:31:08;;;;;;;6.93;5.10;;;18.70;1.00;;;;;;4991972;28;20254;-62
2022/08/16 03:33:35;;;;;;;6.40;5.40;;;18.70;1.00;;;;;;4991957;28;20232;-62
2022/08/16 03:36:03;;;;;;;7.70;4.97;;;18.70;99.90;;;;;;4991678;28;20211;-62
2022/08/16 03:38:31;;;;;;;7.87;5.33;;;18.70;99.90;;;;;;4992186;28;20231;-62
2022/08/16 03:41:00;;;;;;;8.97;4.90;;;18.70;99.90;;;;;;4992007;28;20674;-62
2022/08/16 03:43:28;;;;;;;7.10;5.20;;;18.70;99.90;;;;;;4992052;28;20231;-62
2022/08/16 03:45:57;;;;;;;8.43;5.00;;;18.60;99.90;;;;;;4991775;28;20303;-62
2022/08/16 03:48:26;;;;;;;5.97;4.80;;;18.60;99.90;;;;;;4991989;28;20243;-62
2022/08/16 03:50:53;;;;;;;5.30;4.80;;;18.60;99.90;;;;;;4991836;28;20281;-62
2022/08/16 03:53:20;;;;;;;7.10;5.10;;;18.60;99.90;;;;;;4991908;28;20286;-62
2022/08/16 03:55:47;;;;;;;6.07;4.97;;;18.50;99.90;;;;;;4991890;28;20211;-62
2022/08/16 03:58:15;;;;;;;6.53;4.83;;;18.50;1.00;;;;;;4991495;28;20647;-62
2022/08/16 04:00:42;;;;;;;10.63;7.57;;;18.50;1.00;;;;;;4992006;28;20223;-62
2022/08/16 04:03:08;;;;;;;6.70;5.53;;;18.50;1.00;;;;;;4991832;28;20234;-62
2022/08/16 04:05:37;;;;;;;5.23;4.73;;;18.50;1.00;;;;;;4991910;28;20266;-62
2022/08/16 04:08:04;;;;;;;5.23;4.50;;;18.50;1.00;;;;;;4991666;28;20208;-62
2022/08/16 04:10:31;;;;;;;5.70;5.10;;;18.40;37.60;;;;;;4994107;28;20678;-62
2022/08/16 04:12:58;;;;;;;11.37;5.80;;;18.40;99.90;;;;;;4995321;28;20282;-62
2022/08/16 04:15:28;;;;;;;5.37;4.70;;;18.30;99.90;;;;;;4995482;28;20629;-62
2022/08/16 04:17:55;;;;;;;7.33;5.07;;;18.20;1.00;;;;;;4995069;28;20224;-62
2022/08/16 04:20:22;;;;;;;5.43;4.80;;;18.20;16.80;;;;;;4995698;28;20270;-62
2022/08/16 04:22:48;;;;;;;7.13;5.20;;;18.20;99.90;;;;;;4995411;28;20286;-62
2022/08/16 04:25:15;;;;;;;6.67;4.60;;;18.10;1.00;;;;;;4995477;28;20214;-62
2022/08/16 04:27:42;;;;;;;6.13;4.70;;;18.10;99.90;;;;;;4994942;28;20741;-62
2022/08/16 04:30:11;;;;;;;7.30;5.63;;;18.10;99.90;;;;;;4995105;28;20228;-62
2022/08/16 04:32:40;;;;;;;8.73;5.30;;;18.10;99.90;;;;;;4994889;28;20290;-62
2022/08/16 04:35:09;;;;;;;7.00;5.50;;;18.10;99.90;;;;;;4995219;28;20208;-62
2022/08/16 04:37:35;;;;;;;6.13;5.30;;;18.10;99.90;;;;;;4994572;28;20227;-62
2022/08/16 04:40:03;;;;;;;6.10;5.30;;;18.10;99.90;;;;;;4994727;28;20598;-62
2022/08/16 04:42:29;;;;;;;9.63;5.43;;;18.10;99.90;;;;;;4995357;28;20235;-62
2022/08/16 04:44:57;;;;;;;5.60;5.10;;;18.10;99.90;;;;;;4994784;28;20203;-62
2022/08/16 04:47:27;;;;;;;6.00;5.17;;;18.10;99.90;;;;;;4994924;28;20208;-62
2022/08/16 04:49:55;;;;;;;7.43;5.43;;;18.10;1.00;;;;;;4995399;28;20208;-62
2022/08/16 04:52:22;;;;;;;9.63;5.23;;;18.10;1.00;;;;;;4994882;28;20235;-62
2022/08/16 04:54:49;;;;;;;6.27;4.93;;;18.20;1.00;;;;;;4994655;28;20261;-62
2022/08/16 04:57:15;;;;;;;5.43;4.90;;;18.20;1.00;;;;;;4994225;28;20246;-62
2022/08/16 04:59:42;;;;;;;5.50;4.93;;;18.20;1.00;;;;;;4994449;28;20270;-62
2022/08/16 05:02:09;;;;;;;6.20;5.17;;;18.20;1.00;;;;;;4994595;28;20235;-62
2022/08/16 05:04:36;;;;;;;6.90;5.00;;;18.20;1.00;;;;;;4994357;28;20204;-62
2022/08/16 05:07:04;;;;;;;5.30;4.80;;;18.20;1.00;;;;;;4994229;28;20581;-62
2022/08/16 05:09:31;;;;;;;5.80;4.90;;;18.30;1.00;;;;;;4994500;28;20262;-63
2022/08/16 05:11:58;;;;;;;5.57;5.03;;;18.30;99.90;;;;;;4994242;28;20278;-63
2022/08/16 05:14:25;;;;;;;5.90;4.93;;;18.30;99.90;;;;;;4994282;28;20281;-63
2022/08/16 05:16:51;;;;;;;6.57;4.57;;;18.40;99.90;;;;;;4994136;28;20648;-63
2022/08/16 05:19:18;;;;;;;8.27;5.33;;;18.40;99.90;;;;;;4994237;28;20215;-63
2022/08/16 05:21:45;;;;;;;5.20;4.70;;;18.40;99.90;;;;;;4992957;28;20234;-63
2022/08/16 05:24:13;;;;;;;5.00;4.50;;;18.40;74.50;;;;;;4993745;28;20695;-63
2022/08/16 05:26:39;;;;;;;7.63;4.90;;;18.50;1.00;;;;;;4993781;28;20211;-63
2022/08/16 05:29:06;;;;;;;7.57;5.20;;;18.50;1.00;;;;;;4994049;28;20207;-63
2022/08/16 05:31:33;;;;;;;6.13;4.60;;;18.60;1.00;;;;;;4993881;28;20215;-64
2022/08/16 05:34:02;;;;;;;7.97;4.90;;;18.70;99.90;;;;;;4993955;28;20207;-64
2022/08/16 05:36:29;;;;;;;5.90;5.10;;;18.80;99.90;;;;;;4993700;28;20203;-64
2022/08/16 05:38:55;;;;;;;8.93;5.03;;;18.70;86.90;;;;;;4993773;28;20302;-64
2022/08/16 05:41:23;;;;;;;7.23;5.13;;;18.80;1.00;;;;;;4993567;28;20227;-64
2022/08/16 05:43:50;;;;;;;7.80;5.10;;;18.90;99.90;;;;;;4993791;28;20208;-64
2022/08/16 05:46:18;;;;;;;7.30;5.00;;;18.90;99.90;;;;;;4993373;28;20645;-63
2022/08/16 05:48:45;;;;;;;5.87;4.90;;;18.90;99.90;;;;;;4993660;28;20200;-64
2022/08/16 05:51:12;;;;;;;5.37;4.50;;;19.00;99.90;;;;;;4993358;28;20546;-64
2022/08/16 05:53:38;;;;;;;6.23;4.97;;;19.00;99.90;;;;;;4993349;28;20251;-64
2022/08/16 05:56:05;;;;;;;7.63;5.10;;;19.10;45.10;;;;;;4993145;28;20701;-64
2022/08/16 05:58:33;;;;;;;6.10;5.23;;;19.20;1.00;;;;;;4993404;28;20227;-64
2022/08/16 06:01:00;;;;;;;5.57;4.47;;;19.30;99.90;;;;;;4993355;28;20211;-64
2022/08/16 06:03:27;;;;;;;7.37;4.60;;;19.30;99.90;;;;;;4993359;28;20293;-64
2022/08/16 06:05:53;;;;;;;4.87;4.27;;;19.40;99.90;;;;;;4993020;28;20207;-64
2022/08/16 06:08:20;;;;;;;5.17;4.23;;;19.40;99.90;;;;;;4993059;28;20671;-64
2022/08/16 06:10:47;;;;;;;6.40;4.33;;;19.50;1.00;;;;;;4993404;28;20235;-64
2022/08/16 06:13:13;;;;;;;4.73;4.17;;;19.50;1.00;;;;;;4993101;28;20363;-64
2022/08/16 06:15:41;;;;;;;5.93;4.17;;;19.60;1.00;;;;;;4993258;28;20207;-64
2022/08/16 06:18:08;;;;;;;4.97;4.07;;;19.70;99.90;;;;;;4992815;28;20228;-63
2022/08/16 06:20:35;;;;;;;5.77;3.97;;;19.80;99.90;;;;;;4992667;28;20214;-63
2022/08/16 06:23:01;;;;;;;5.23;3.93;;;19.80;99.90;;;;;;4992673;28;20267;-63
2022/08/16 06:25:29;;;;;;;6.50;4.07;;;19.90;1.00;;;;;;4993129;28;20207;-64
2022/08/16 06:27:55;;;;;;;4.97;4.47;;;19.90;1.00;;;;;;4992641;28;20200;-64
2022/08/16 06:30:23;;;;;;;5.77;4.67;;;20.00;99.90;;;;;;4993027;28;20274;-64
2022/08/16 06:32:51;;;;;;;6.77;4.47;;;20.00;99.90;;;;;;4992238;28;20231;-64
2022/08/16 06:35:18;;;;;;;5.90;3.70;;;20.10;99.90;;;;;;4992695;28;20211;-66
2022/08/16 06:37:44;;;;;;;6.70;4.57;;;20.20;99.90;;;;;;4992558;28;20642;-63
2022/08/16 06:40:11;;;;;;;6.10;4.37;;;20.30;99.90;;;;;;4992730;28;20683;-63
2022/08/16 06:42:38;;;;;;;4.87;4.20;;;20.40;99.90;;;;;;4993045;28;20228;-63
2022/08/16 06:45:06;;;;;;;6.27;4.53;;;20.40;99.90;;;;;;4992457;28;20294;-63
2022/08/16 06:47:33;;;;;;;5.20;4.23;;;20.40;99.90;;;;;;4992698;28;20274;-63
2022/08/16 06:50:01;;;;;;;7.40;4.43;;;20.50;99.90;;;;;;4992579;28;20262;-63
2022/08/16 06:52:35;;;;;;;5.90;4.33;;;20.60;20.90;;;;;;4992713;28;20338;-63
2022/08/16 06:55:02;;;;;;;5.47;4.40;;;20.70;11.00;;;;;;4992621;28;20243;-63
2022/08/16 06:57:29;;;;;;;5.43;4.00;;;20.80;1.00;;;;;;4992176;28;20207;-63
2022/08/16 06:59:56;;;;;;;5.77;4.67;;;20.90;1.00;;;;;;4992523;28;20258;-63
2022/08/16 07:02:22;;;;;;;6.10;4.20;;;20.90;1.00;;;;;;4992292;28;20251;-63
2022/08/16 07:04:49;;;;;;;7.57;4.60;;;21.00;1.00;;;;;;4992446;28;20215;-63
2022/08/16 07:07:18;;;;;;;7.40;4.40;;;21.10;1.00;;;;;;4992245;28;20636;-63
2022/08/16 07:09:44;;;;;;;6.37;4.60;;;21.20;1.00;;;;;;4992171;28;20686;-63
2022/08/16 07:12:11;;;;;;;8.27;4.60;;;21.20;1.00;;;;;;4992376;28;20227;-63
2022/08/16 07:14:38;;;;;;;7.73;4.60;;;21.40;1.00;;;;;;4992289;28;20203;-63
2022/08/16 07:17:06;;;;;;;8.10;5.30;;;21.50;1.00;;;;;;4991984;28;20254;-63
2022/08/16 07:19:33;;;;;;;7.67;5.13;;;21.60;99.90;;;;;;4992316;28;20228;-63
2022/08/16 07:22:01;;;;;;;6.27;5.20;;;21.70;99.90;;;;;;4992368;28;20281;-63
2022/08/16 07:24:29;;;;;;;6.73;5.30;;;21.70;99.90;;;;;;4992318;28;20294;-63
2022/08/16 07:26:56;;;;;;;8.50;5.23;;;21.80;99.90;;;;;;4992138;28;20214;-63
2022/08/16 07:29:23;;;;;;;7.10;4.97;;;21.90;99.90;;;;;;4991909;28;20670;-63
2022/08/16 07:31:49;;;;;;;7.60;4.70;;;22.10;99.90;;;;;;4991919;28;20231;-63
2022/08/16 07:34:17;;;;;;;7.33;4.97;;;22.20;99.90;;;;;;4992136;28;20204;-63
2022/08/16 07:36:44;;;;;;;8.00;5.03;;;22.30;99.90;;;;;;4992091;28;20208;-63
2022/08/16 07:39:11;;;;;;;8.17;5.00;;;22.40;99.90;;;;;;4992150;28;20227;-63
2022/08/16 07:41:40;;;;;;;8.00;5.10;;;22.50;99.90;;;;;;4992007;28;20208;-63
2022/08/16 07:44:07;;;;;;;9.60;4.77;;;22.60;99.90;;;;;;4991943;28;20234;-63
2022/08/16 07:46:33;;;;;;;8.70;4.73;;;22.80;99.90;;;;;;4995381;28;20250;-63
2022/08/16 07:49:00;;;;;;;8.23;4.77;;;23.00;99.90;;;;;;4995834;28;20258;-63
2022/08/16 07:51:30;;;;;;;8.83;5.47;;;23.20;99.90;;;;;;4996006;28;20204;-63
2022/08/16 07:53:57;;;;;;;7.10;5.10;;;23.30;99.90;;;;;;4995801;28;20208;-66
2022/08/16 07:56:23;;;;;;;5.97;5.20;;;23.50;99.90;;;;;;4984739;28;20645;-64
2022/08/16 07:58:51;;;;;;;8.33;5.40;;;23.50;99.90;;;;;;4993856;28;20748;-64
2022/08/16 08:01:18;;;;;;;8.20;4.77;;;23.40;99.90;;;;;;4991721;28;20250;-67
2022/08/16 08:03:46;;;;;;;4.67;4.27;;;23.60;99.90;;;;;;4994159;28;20236;-64
2022/08/16 08:06:12;;;;;;;6.70;4.77;;;23.70;99.90;;;;;;4994789;28;20323;-64
2022/08/16 08:08:40;;;;;;;5.50;4.80;;;23.90;99.90;;;;;;4994857;28;20231;-65
2022/08/16 08:11:07;;;;;;;7.70;5.23;;;23.80;99.90;;;;;;4994744;28;20207;-65
2022/08/16 08:13:34;;;;;;;6.73;5.13;;;23.90;99.90;;;;;;4995289;28;20227;-64
2022/08/16 08:16:02;;;;;;;8.57;4.97;;;24.00;99.90;;;;;;4995449;28;20242;-64
2022/08/16 08:18:29;;;;;;;9.80;4.90;;;24.10;99.90;;;;;;4995184;28;20235;-64
2022/08/16 08:20:56;;;;;;;8.53;4.93;;;24.10;99.90;;;;;;4994551;28;20302;-63
2022/08/16 08:23:22;;;;;;;5.83;5.00;;;24.30;99.90;;;;;;4994689;28;20242;-64
2022/08/16 08:25:49;;;;;;;6.17;5.03;;;24.50;99.90;;;;;;4994033;28;20219;-64
2022/08/16 08:28:17;;;;;;;8.00;5.33;;;24.50;99.90;;;;;;4994873;28;20203;-64
2022/08/16 08:30:44;;;;;;;6.83;4.77;;;24.70;99.90;;;;;;4994301;28;20675;-64
2022/08/16 08:33:13;;;;;;;6.77;5.33;;;24.80;99.90;;;;;;4994591;28;20258;-64
2022/08/16 08:35:40;;;;;;;7.43;5.03;;;24.90;99.90;;;;;;4995302;28;20208;-63
2022/08/16 08:38:07;;;;;;;5.83;5.33;;;25.00;99.90;;;;;;4994665;28;20741;-64
2022/08/16 08:40:35;;;;;;;8.33;4.67;;;25.10;99.90;;;;;;4995441;28;20207;-64
2022/08/16 08:43:02;;;;;;;8.10;5.60;;;25.20;99.90;;;;;;4994233;28;20270;-65
2022/08/16 08:45:29;;;;;;;8.07;5.40;;;25.20;99.90;;;;;;4994417;28;20251;-64
2022/08/16 08:47:56;;;;;;;7.00;5.37;;;25.30;99.90;;;;;;4994138;28;20311;-63
2022/08/16 08:50:24;;;;;;;10.83;5.87;;;25.40;99.90;;;;;;4994567;28;20215;-64
2022/08/16 08:52:52;;;;;;;9.07;5.67;;;25.50;99.90;;;;;;4994028;28;20282;-64
2022/08/16 08:55:21;;;;;;;6.77;5.23;;;25.40;99.90;;;;;;4993167;28;20212;-63
2022/08/16 08:57:50;;;;;;;6.30;5.17;;;25.40;99.90;;;;;;4993850;28;20224;-64
2022/08/16 09:00:21;;;;;;;7.40;5.23;;;25.50;99.90;;;;;;4994190;28;20224;-63
2022/08/16 09:02:49;;;;;;;8.40;5.40;;;25.40;99.90;;;;;;4994405;28;20231;-64
2022/08/16 09:05:18;;;;;;;8.23;4.73;;;25.50;99.90;;;;;;4994193;28;20232;-64
2022/08/16 09:07:46;;;;;;;7.87;5.33;;;25.70;99.90;;;;;;4994137;28;20271;-64
2022/08/16 09:10:13;;;;;;;6.37;5.27;;;25.90;99.90;;;;;;4993969;28;20208;-64
2022/08/16 09:12:40;;;;;;;10.37;5.53;;;26.00;99.90;;;;;;4993801;28;20282;-64
2022/08/16 09:15:08;;;;;;;7.63;5.53;;;26.00;99.90;;;;;;4991498;28;20203;-66
2022/08/16 09:17:36;;;;;;;9.30;5.63;;;26.10;99.90;;;;;;4989066;28;20207;-64
2022/08/16 09:20:03;;;;;;;12.43;5.20;;;26.30;99.90;;;;;;4993929;28;20227;-64
2022/08/16 09:22:30;;;;;;;5.67;5.00;;;26.30;99.90;;;;;;4992815;28;20231;-64
2022/08/16 09:24:58;;;;;;;9.40;5.70;;;26.20;99.90;;;;;;4993780;28;20210;-64
2022/08/16 09:27:27;;;;;;;9.80;5.77;;;26.20;99.90;;;;;;4993784;28;20211;-64
2022/08/16 09:29:54;;;;;;;8.13;5.10;;;26.00;99.90;;;;;;4994082;28;20208;-65
2022/08/16 09:32:21;;;;;;;7.37;5.67;;;26.10;99.90;;;;;;4993644;28;20236;-64
2022/08/16 09:34:47;;;;;;;10.53;5.10;;;26.20;99.90;;;;;;4993923;28;20208;-64
2022/08/16 09:37:15;;;;;;;6.50;4.93;;;26.10;99.90;;;;;;4993698;28;20212;-65
2022/08/16 09:39:43;;;;;;;5.90;5.00;;;26.40;99.90;;;;;;4993611;28;20238;-65
2022/08/16 09:42:14;;;;;;;10.77;5.73;;;26.70;99.90;;;;;;4993942;28;20223;-64
2022/08/16 09:44:41;;;;;;;5.63;4.70;;;26.70;99.90;;;;;;4993973;28;20674;-64
2022/08/16 09:47:08;;;;;;;8.30;5.43;;;26.90;99.90;;;;;;4993341;28;20212;-64
2022/08/16 09:49:34;;;;;;;6.57;5.03;;;26.90;99.90;;;;;;4993432;28;20252;-64
2022/08/16 09:52:01;;;;;;;7.67;5.50;;;26.80;99.90;;;;;;4993610;28;20227;-65
2022/08/16 09:54:28;;;;;;;7.90;5.27;;;26.50;99.90;;;;;;4993701;28;20212;-64
2022/08/16 09:56:55;;;;;;;7.60;5.57;;;26.40;99.90;;;;;;4993214;28;20243;-64
2022/08/16 09:59:25;;;;;;;5.67;4.90;;;26.50;99.90;;;;;;4993322;28;20278;-64
2022/08/16 10:01:52;;;;;;;10.00;5.13;;;26.60;99.90;;;;;;4993572;28;20227;-65
2022/08/16 10:04:20;;;;;;;5.53;5.00;;;26.60;99.90;;;;;;4993405;28;20274;-64
2022/08/16 10:06:47;;;;;;;8.37;5.07;;;26.80;99.90;;;;;;4992840;28;20204;-64
2022/08/16 10:09:15;;;;;;;7.83;4.53;;;27.00;99.90;;;;;;4993143;28;20207;-64
2022/08/16 10:14:29;;;;;;;11.00;5.13;;;27.20;99.90;;;;;;4993163;28;20327;-64
2022/08/16 10:16:57;;;;;;;7.23;4.73;;;27.30;99.90;;;;;;4992849;28;20210;-64
2022/08/16 10:19:24;;;;;;;7.87;5.40;;;27.30;99.90;;;;;;4993273;28;20227;-64
2022/08/16 10:21:50;;;;;;;5.77;4.83;;;27.50;99.90;;;;;;4993028;28;20259;-64
2022/08/16 10:24:18;;;;;;;7.93;4.97;;;27.60;99.90;;;;;;4993128;28;20258;-64
2022/08/16 10:26:45;;;;;;;5.80;4.90;;;27.20;99.90;;;;;;4992649;28;20208;-64
2022/08/16 10:29:13;;;;;;;10.07;4.87;;;27.30;99.90;;;;;;4993172;28;20219;-64
2022/08/16 10:31:41;;;;;;;5.30;4.80;;;27.40;99.90;;;;;;4992909;28;20651;-66
2022/08/16 10:34:08;;;;;;;7.43;4.80;;;27.60;99.90;;;;;;4983354;28;20203;-64
2022/08/16 10:36:35;;;;;;;8.63;5.20;;;27.60;99.90;;;;;;4988913;28;20631;-65
2022/08/16 10:39:02;;;;;;;6.33;4.60;;;27.50;99.90;;;;;;4991979;28;20760;-66
2022/08/16 10:41:29;;;;;;;8.00;5.27;;;27.60;99.90;;;;;;4992037;28;20218;-66
2022/08/16 10:43:55;;;;;;;8.33;5.63;;;27.80;99.90;;;;;;4992700;28;20218;-64
2022/08/16 10:46:22;;;;;;;10.13;5.30;;;27.60;99.90;;;;;;4991078;28;20726;-67
2022/08/16 10:48:51;;;;;;;9.97;5.40;;;27.30;99.90;;;;;;4992241;28;20626;-65
2022/08/16 10:51:18;;;;;;;6.97;5.03;;;27.40;99.90;;;;;;4992429;28;20207;-65
2022/08/16 10:53:44;;;;;;;5.50;4.53;;;27.40;99.90;;;;;;4991784;28;20232;-65
2022/08/16 10:56:12;;;;;;;4.83;4.27;;;27.60;99.90;;;;;;4991820;28;20208;-65
2022/08/16 10:58:40;;;;;;;7.97;5.60;;;27.70;99.90;;;;;;4991588;28;20242;-64
2022/08/16 11:01:08;;;;;;;5.40;4.77;;;27.20;99.90;;;;;;4992073;28;20207;-65
2022/08/16 11:03:35;;;;;;;9.57;4.90;;;27.40;99.90;;;;;;4991865;28;20726;-65
2022/08/16 11:06:04;;;;;;;7.37;4.60;;;27.50;99.90;;;;;;4991220;28;20207;-65
2022/08/16 11:08:31;;;;;;;8.17;5.60;;;27.60;99.90;;;;;;4991812;28;20246;-65
2022/08/16 11:10:58;;;;;;;5.57;4.43;;;27.50;99.90;;;;;;4991488;28;20208;-64
2022/08/16 11:13:27;;;;;;;5.20;4.07;;;27.50;99.90;;;;;;4991987;28;20861;-64
2022/08/16 11:15:56;;;;;;;7.70;4.47;;;27.50;99.90;;;;;;4991586;28;20214;-65
2022/08/16 11:18:22;;;;;;;8.50;5.00;;;27.60;99.90;;;;;;4991783;28;20207;-65
2022/08/16 11:20:49;;;;;;;6.83;4.27;;;27.80;99.90;;;;;;4994507;28;20223;-65
2022/08/16 11:23:17;;;;;;;5.33;4.10;;;27.90;99.90;;;;;;4995638;28;20232;-65
2022/08/16 11:25:44;;;;;;;7.70;4.27;;;28.20;99.90;;;;;;4995289;28;20709;-63
2022/08/16 11:28:11;;;;;;;8.00;4.00;;;28.50;99.90;;;;;;4995243;28;20258;-65
2022/08/16 11:30:38;;;;;;;6.90;4.23;;;28.40;99.90;;;;;;4995684;28;20212;-65
2022/08/16 11:33:05;;;;;;;4.87;3.70;;;28.30;99.90;;;;;;4995331;28;20726;-65
2022/08/16 11:35:32;;;;;;;6.27;4.10;;;28.20;99.90;;;;;;4995207;28;20211;-65
2022/08/16 11:38:01;;;;;;;5.77;3.90;;;28.30;99.90;;;;;;4995586;28;20258;-65
2022/08/16 11:40:31;;;;;;;5.90;4.07;;;28.50;99.90;;;;;;4995286;28;20238;-65
2022/08/16 11:42:58;;;;;;;11.80;4.13;;;28.70;99.90;;;;;;4995587;28;20656;-63
2022/08/16 11:45:25;;;;;;;7.22;3.28;;;28.80;99.90;;;;;;4995136;28;20230;-66
2022/08/16 11:47:53;;;;;;;6.70;3.97;;;28.90;99.90;;;;;;4995017;28;20266;-64
2022/08/16 11:50:20;;;;;;;5.85;3.90;;;28.90;99.90;;;;;;4995772;28;20637;-64
2022/08/16 11:52:47;;;;;;;5.13;3.50;;;29.00;99.90;;;;;;4995529;28;20231;-63
2022/08/16 11:55:13;;;;;;;6.50;3.70;;;29.00;99.90;;;;;;4995405;28;20212;-66
2022/08/16 11:57:47;;;;;;;9.57;3.70;;;29.10;99.90;;;;;;4994827;28;20562;-68
2022/08/16 12:00:15;;;;;;;7.83;3.90;;;29.10;99.90;;;;;;4995112;28;20227;-68
2022/08/16 12:02:42;;;;;;;6.47;4.23;;;29.00;99.90;;;;;;4994846;28;20230;-66
2022/08/16 12:05:12;;;;;;;6.47;4.13;;;28.90;99.90;;;;;;4995156;28;20623;-66
2022/08/16 12:07:40;;;;;;;5.80;4.10;;;28.80;99.90;;;;;;4994872;28;20208;-66
2022/08/16 12:10:10;;;;;;;4.10;3.63;;;28.80;99.90;;;;;;4995029;28;20271;-67
2022/08/16 12:12:36;;;;;;;8.50;3.97;;;28.70;99.90;;;;;;4994904;28;20329;-67
2022/08/16 12:15:05;;;;;;;9.30;4.03;;;28.80;99.90;;;;;;4994443;28;20632;-67
2022/08/16 12:17:32;;;;;;;6.07;3.60;;;28.80;99.90;;;;;;4994648;28;20674;-66
2022/08/16 12:19:59;;;;;;;7.73;4.20;;;28.90;99.90;;;;;;4995111;28;20228;-66
2022/08/16 12:22:26;;;;;;;7.63;3.67;;;28.90;99.90;;;;;;4994635;28;20266;-63
2022/08/16 12:24:53;;;;;;;8.87;3.73;;;29.00;99.90;;;;;;4994533;28;20215;-64
2022/08/16 12:27:21;;;;;;;10.52;4.18;;;29.10;99.90;;;;;;4994264;28;20204;-63
2022/08/16 12:29:49;;;;;;;5.03;3.72;;;29.30;99.90;;;;;;4994209;28;20637;-63
2022/08/16 12:32:19;;;;;;;5.85;3.50;;;29.10;99.90;;;;;;4994146;28;20236;-64
2022/08/16 12:34:45;;;;;;;9.70;4.05;;;28.90;99.90;;;;;;4994191;28;20211;-65
2022/08/16 12:37:13;;;;;;;6.17;4.30;;;28.90;99.90;;;;;;4994234;28;20208;-65
2022/08/16 12:39:40;;;;;;;5.37;4.20;;;28.90;99.90;;;;;;4994305;28;20238;-65
2022/08/16 12:42:08;;;;;;;5.20;3.93;;;28.70;99.90;;;;;;4994320;28;20223;-65
2022/08/16 12:44:35;;;;;;;7.40;3.80;;;28.80;99.90;;;;;;4993978;28;20219;-65
2022/08/16 12:49:48;;;;;;;5.83;3.67;;;29.10;99.90;;;;;;4994118;28;20577;-65
2022/08/16 12:52:15;;;;;;;9.32;3.90;;;29.00;99.90;;;;;;4994188;28;20227;-65
2022/08/16 12:54:42;;;;;;;8.00;4.20;;;29.10;99.90;;;;;;4993810;28;20207;-65
2022/08/16 12:57:09;;;;;;;6.30;3.85;;;29.30;99.90;;;;;;4994040;28;20207;-62